CYQA

Muskoka Airport

Muskoka, , Canada
METAR CYQA 202000Z AUTO 16007KT 9SM SCT044 26/16 A3003 RMK SLP171 DENSITY ALT 2200FT
Observed Flight Rules
Aug-20 @ 20:00 UTC (29 minutes ago) Visual Flight Rules
Wind Visibility Clouds
160° at 7 knots 9 miles
  • Scattered at 4,400' AGL
Temperatures Readings
Current 26°C / 79°F
Dewpoint 16°C / 61°F
Humidity 54%
Altimeter 30.03" Hg
Pressure 1017.1 hPa
Elevation 282
METAR CYQA 202000Z AUTO 16007KT 9SM SCT044 26/16 A3003 RMK SLP171 DENSITY ALT 2200FT
Observed Flight Rules
Aug-20 @ 20:00 UTC
(29 minutes ago)
VFR
Wind Visibility
160° at 7 knots 9 miles
Clouds
  • Scattered at 4,400' AGL
Temperature Dewpoint
26°C / 79°F 16°C / 61°F
Humidity Altimeter Pressure
54% 30.03" Hg 1017.1 hPa